createdAt,value
2023-04-26T00:02:24.308Z,3.10
2023-04-26T00:04:56.495Z,3.10
2023-04-26T00:07:28.630Z,3.00
2023-04-26T00:09:55.925Z,2.90
2023-04-26T00:12:23.233Z,3.00
2023-04-26T00:14:50.864Z,3.00
2023-04-26T00:17:18.044Z,3.00
2023-04-26T00:19:45.343Z,3.00
2023-04-26T00:22:13.022Z,2.90
2023-04-26T00:24:40.308Z,2.80
2023-04-26T00:27:10.296Z,2.80
2023-04-26T00:29:37.641Z,2.70
2023-04-26T00:32:06.176Z,2.70
2023-04-26T00:34:35.265Z,2.70
2023-04-26T00:37:03.475Z,2.80
2023-04-26T00:39:31.243Z,2.70
2023-04-26T00:41:58.560Z,2.80
2023-04-26T00:44:25.856Z,2.70
2023-04-26T00:46:54.060Z,2.70
2023-04-26T00:49:24.581Z,2.70
2023-04-26T00:51:55.551Z,2.60
2023-04-26T00:54:23.576Z,2.70
2023-04-26T00:56:53.054Z,2.70
2023-04-26T00:59:20.847Z,2.70
2023-04-26T01:01:49.111Z,2.70
2023-04-26T01:04:16.865Z,2.70
2023-04-26T01:06:44.422Z,2.70
2023-04-26T01:09:14.814Z,2.60
2023-04-26T01:11:43.548Z,2.60
2023-04-26T01:14:11.361Z,2.70
2023-04-26T01:16:40.603Z,2.70
2023-04-26T01:19:11.035Z,2.60
2023-04-26T01:21:40.482Z,2.60
2023-04-26T01:24:10.015Z,2.60
2023-04-26T01:26:48.401Z,2.60
2023-04-26T01:29:17.600Z,2.60
2023-04-26T01:31:45.044Z,2.60
2023-04-26T01:34:12.914Z,2.60
2023-04-26T01:36:40.653Z,2.60
2023-04-26T01:39:09.238Z,2.50
2023-04-26T01:41:36.620Z,2.50
2023-04-26T01:44:03.946Z,2.50
2023-04-26T01:46:31.646Z,2.50
2023-04-26T01:48:58.994Z,2.50
2023-04-26T01:51:27.115Z,2.50
2023-04-26T01:53:54.522Z,2.50
2023-04-26T01:56:24.247Z,2.50
2023-04-26T01:58:51.930Z,2.40
2023-04-26T02:01:19.393Z,2.50
2023-04-26T02:03:46.689Z,2.40
2023-04-26T02:06:14.028Z,2.40
2023-04-26T02:08:41.219Z,2.30
2023-04-26T02:11:08.437Z,2.40
2023-04-26T02:13:36.806Z,2.30
2023-04-26T02:16:04.347Z,2.30
2023-04-26T02:18:31.602Z,2.20
2023-04-26T02:20:58.865Z,2.10
2023-04-26T02:23:26.252Z,2.20
2023-04-26T02:25:53.626Z,2.10
2023-04-26T02:28:21.084Z,2.10
2023-04-26T02:30:48.306Z,2.10
2023-04-26T02:33:15.589Z,2.10
2023-04-26T02:35:42.808Z,2.10
2023-04-26T02:38:11.184Z,2.00
2023-04-26T02:40:38.400Z,2.10
2023-04-26T02:43:05.708Z,2.00
2023-04-26T02:45:32.971Z,2.00
2023-04-26T02:48:00.568Z,1.90
2023-04-26T02:50:27.877Z,1.90
2023-04-26T02:52:55.115Z,2.00
2023-04-26T02:55:22.327Z,2.00
2023-04-26T02:57:49.685Z,2.00
2023-04-26T03:00:17.122Z,1.90
2023-04-26T03:02:44.548Z,2.00
2023-04-26T03:05:11.947Z,1.90
2023-04-26T03:07:39.326Z,1.90
2023-04-26T03:10:08.648Z,1.90
2023-04-26T03:12:36.690Z,1.90
2023-04-26T03:15:04.332Z,1.90
2023-04-26T03:17:31.896Z,1.80
2023-04-26T03:20:01.244Z,1.90
2023-04-26T03:22:29.744Z,2.00
2023-04-26T03:24:57.082Z,2.00
2023-04-26T03:27:26.781Z,2.00
2023-04-26T03:29:54.626Z,2.10
2023-04-26T03:32:22.341Z,2.10
2023-04-26T03:34:50.112Z,2.10
2023-04-26T03:37:17.454Z,2.00
2023-04-26T03:39:50.597Z,2.10
2023-04-26T03:42:18.232Z,2.10
2023-04-26T03:44:45.482Z,2.10
2023-04-26T03:47:15.272Z,2.10
2023-04-26T03:49:42.782Z,2.10
2023-04-26T03:52:10.071Z,2.10
2023-04-26T03:54:37.279Z,2.10
2023-04-26T03:57:04.569Z,2.10
2023-04-26T03:59:31.958Z,2.20
2023-04-26T04:02:00.203Z,2.20
2023-04-26T04:04:28.187Z,2.20
2023-04-26T04:06:56.035Z,2.20
2023-04-26T04:09:23.812Z,2.20
2023-04-26T04:11:51.636Z,2.20
2023-04-26T04:14:18.943Z,2.30
2023-04-26T04:16:46.921Z,2.20
2023-04-26T04:19:14.933Z,2.20
2023-04-26T04:21:43.650Z,2.20
2023-04-26T04:24:11.425Z,2.10
2023-04-26T04:26:39.117Z,2.10
2023-04-26T04:29:09.299Z,2.10
2023-04-26T04:31:40.080Z,2.20
2023-04-26T04:34:08.858Z,2.20
2023-04-26T04:36:38.783Z,2.20
2023-04-26T04:39:16.146Z,2.20
2023-04-26T04:41:50.403Z,2.30
2023-04-26T04:44:19.696Z,2.30
2023-04-26T04:46:47.333Z,2.30
2023-04-26T04:49:15.414Z,2.40
2023-04-26T04:51:43.096Z,2.50
2023-04-26T04:54:11.841Z,2.50
2023-04-26T04:56:39.824Z,2.50
2023-04-26T04:59:08.570Z,2.50
2023-04-26T05:01:39.515Z,2.60
2023-04-26T05:04:11.453Z,2.70
2023-04-26T05:06:39.232Z,2.70
2023-04-26T05:09:06.949Z,2.80
2023-04-26T05:11:35.513Z,2.80
2023-04-26T05:14:04.820Z,2.80
2023-04-26T05:16:32.308Z,2.90
2023-04-26T05:19:01.744Z,3.00
2023-04-26T05:21:29.207Z,3.10
2023-04-26T05:23:56.550Z,3.10
2023-04-26T05:26:24.062Z,3.30
2023-04-26T05:29:20.740Z,3.30
2023-04-26T05:32:06.645Z,3.50
2023-04-26T05:34:39.678Z,3.50
2023-04-26T05:37:09.483Z,3.50
2023-04-26T05:39:37.327Z,3.60
2023-04-26T05:42:04.671Z,3.70
2023-04-26T05:44:32.595Z,3.80
2023-04-26T05:46:59.985Z,3.90
2023-04-26T05:49:27.955Z,4.00
2023-04-26T05:51:55.263Z,4.10
2023-04-26T05:54:22.790Z,4.20
2023-04-26T05:56:50.132Z,4.40
2023-04-26T05:59:18.341Z,4.50
2023-04-26T06:01:45.803Z,4.60
2023-04-26T06:04:13.344Z,4.80
2023-04-26T06:06:49.986Z,5.00
2023-04-26T06:09:18.977Z,5.20
2023-04-26T06:11:47.761Z,5.30
2023-04-26T06:14:29.503Z,5.50
2023-04-26T06:16:59.839Z,5.60
2023-04-26T06:19:28.750Z,5.50
2023-04-26T06:21:57.320Z,5.40
2023-04-26T06:24:26.073Z,5.20
2023-04-26T06:26:53.508Z,5.20
2023-04-26T06:29:21.868Z,5.10
2023-04-26T06:31:49.382Z,5.10
2023-04-26T06:34:18.346Z,5.20
2023-04-26T06:36:46.435Z,5.10
2023-04-26T06:39:13.867Z,5.20
2023-04-26T06:41:43.433Z,5.40
2023-04-26T06:44:11.831Z,5.40
2023-04-26T06:46:43.559Z,5.40
2023-04-26T06:49:11.661Z,5.40
2023-04-26T06:51:38.957Z,5.40
2023-04-26T06:54:06.334Z,5.40
2023-04-26T06:56:33.557Z,5.50
2023-04-26T06:59:06.378Z,5.60
2023-04-26T07:01:35.105Z,5.60
2023-04-26T07:04:04.034Z,5.60
2023-04-26T07:06:31.686Z,5.70
2023-04-26T07:09:01.210Z,5.90
2023-04-26T07:11:29.002Z,6.00
2023-04-26T07:13:57.216Z,6.00
2023-04-26T07:16:24.711Z,6.10
2023-04-26T07:18:52.950Z,6.10
2023-04-26T07:21:20.502Z,6.30
2023-04-26T07:23:47.754Z,6.40
2023-04-26T07:26:15.282Z,6.50
2023-04-26T07:28:42.632Z,6.60
2023-04-26T07:31:10.993Z,6.70
2023-04-26T07:33:38.882Z,6.80
2023-04-26T07:36:06.500Z,6.80
2023-04-26T07:38:33.938Z,7.00
2023-04-26T07:41:01.784Z,7.10
2023-04-26T07:43:30.814Z,7.20
2023-04-26T07:46:02.309Z,7.50
2023-04-26T07:48:29.744Z,7.50
2023-04-26T07:50:57.156Z,7.60
2023-04-26T07:53:24.512Z,7.50
2023-04-26T07:55:52.153Z,7.50
2023-04-26T07:58:19.835Z,7.50
2023-04-26T08:00:47.844Z,7.40
2023-04-26T08:03:17.890Z,7.50
2023-04-26T08:05:46.522Z,7.70
2023-04-26T08:08:14.120Z,7.70
2023-04-26T08:10:42.742Z,8.10
2023-04-26T08:13:10.129Z,8.40
2023-04-26T08:15:37.659Z,8.30
2023-04-26T08:18:05.185Z,8.50
2023-04-26T08:20:32.815Z,8.60
2023-04-26T08:23:00.286Z,8.70
2023-04-26T08:25:28.579Z,8.50
2023-04-26T08:27:56.096Z,8.00
2023-04-26T08:30:23.842Z,7.90
2023-04-26T08:32:51.224Z,7.80
2023-04-26T08:35:18.861Z,8.00
2023-04-26T08:37:46.162Z,8.10
2023-04-26T08:40:13.591Z,8.60
2023-04-26T08:42:43.886Z,9.10
2023-04-26T08:45:11.815Z,9.30
2023-04-26T08:47:47.276Z,9.30
2023-04-26T08:50:16.299Z,9.00
2023-04-26T08:52:44.633Z,8.80
2023-04-26T08:55:13.119Z,8.90
2023-04-26T08:57:40.905Z,8.70
2023-04-26T09:00:10.449Z,8.80
2023-04-26T09:02:39.825Z,8.90
2023-04-26T09:05:08.408Z,9.10
2023-04-26T09:07:47.204Z,9.40
2023-04-26T09:10:22.436Z,9.50
2023-04-26T09:12:53.690Z,9.50
2023-04-26T09:15:22.890Z,9.40
2023-04-26T09:17:51.842Z,9.30
2023-04-26T09:20:23.779Z,9.30
2023-04-26T09:22:53.476Z,9.40
2023-04-26T09:25:30.109Z,9.70
2023-04-26T09:27:58.412Z,9.50
2023-04-26T09:30:27.511Z,9.30
2023-04-26T09:32:58.054Z,9.10
2023-04-26T09:35:33.718Z,9.10
2023-04-26T09:38:15.199Z,9.30
2023-04-26T09:40:43.443Z,9.40
2023-04-26T09:43:19.596Z,9.30
2023-04-26T09:45:50.492Z,9.50
2023-04-26T09:48:30.817Z,9.40
2023-04-26T09:51:18.516Z,9.10
2023-04-26T09:53:48.085Z,9.10
2023-04-26T09:56:17.655Z,9.30
2023-04-26T09:58:50.529Z,9.30
2023-04-26T10:01:19.726Z,9.60
2023-04-26T10:03:47.772Z,9.60
2023-04-26T10:06:18.831Z,9.70
2023-04-26T10:08:46.227Z,9.50
2023-04-26T10:11:13.970Z,9.50
2023-04-26T10:13:42.873Z,9.50
2023-04-26T10:16:10.815Z,9.40
2023-04-26T10:18:38.398Z,9.30
2023-04-26T10:21:28.701Z,9.10
2023-04-26T10:23:56.673Z,9.00
2023-04-26T10:26:57.287Z,8.90
2023-04-26T10:29:26.835Z,9.10
2023-04-26T10:32:06.350Z,9.20
2023-04-26T10:34:34.922Z,9.10
2023-04-26T10:37:16.823Z,9.00
2023-04-26T10:39:46.308Z,9.00
2023-04-26T10:42:28.077Z,8.80
2023-04-26T10:45:22.014Z,8.80
2023-04-26T10:47:49.406Z,9.00
2023-04-26T10:50:16.933Z,9.00
2023-04-26T10:53:05.455Z,8.80
2023-04-26T10:55:42.885Z,8.80
2023-04-26T10:58:33.444Z,8.60
2023-04-26T11:01:07.703Z,8.60
2023-04-26T11:03:36.169Z,8.80
2023-04-26T11:06:13.793Z,9.00
2023-04-26T11:08:41.700Z,9.10
2023-04-26T11:11:12.447Z,9.30
2023-04-26T11:13:43.979Z,9.50
2023-04-26T11:16:13.633Z,9.60
2023-04-26T11:18:42.952Z,9.60
2023-04-26T11:21:12.155Z,9.50
2023-04-26T11:23:39.909Z,9.60
2023-04-26T11:26:08.437Z,9.90
2023-04-26T11:28:37.949Z,10.00
2023-04-26T11:31:07.526Z,10.30
2023-04-26T11:33:34.827Z,10.30
2023-04-26T11:36:02.557Z,10.30
2023-04-26T11:38:30.853Z,10.90
2023-04-26T11:41:00.511Z,10.90
2023-04-26T11:43:38.806Z,10.80
2023-04-26T11:46:10.101Z,10.50
2023-04-26T11:48:38.680Z,10.20
2023-04-26T11:51:07.571Z,10.00
2023-04-26T11:53:36.111Z,9.80
2023-04-26T11:56:04.193Z,9.60
2023-04-26T11:58:31.625Z,9.50
2023-04-26T12:01:00.369Z,9.20
2023-04-26T12:03:38.173Z,9.30
2023-04-26T12:06:06.234Z,9.40
2023-04-26T12:08:34.034Z,9.60
2023-04-26T12:11:04.596Z,9.80
2023-04-26T12:13:33.054Z,9.80
2023-04-26T12:16:00.617Z,9.70
2023-04-26T12:18:32.715Z,10.00
2023-04-26T12:21:00.530Z,10.60
2023-04-26T12:23:27.944Z,11.00
2023-04-26T12:25:57.314Z,10.80
2023-04-26T12:28:25.036Z,10.60
2023-04-26T12:30:52.400Z,10.80
2023-04-26T12:33:22.918Z,11.00
2023-04-26T12:35:50.997Z,10.80
2023-04-26T12:38:20.094Z,10.40
2023-04-26T12:40:47.797Z,10.00
2023-04-26T12:43:16.786Z,10.10
2023-04-26T12:45:44.326Z,10.10
2023-04-26T12:48:12.802Z,9.90
2023-04-26T12:50:40.504Z,10.00
2023-04-26T12:53:07.898Z,10.00
2023-04-26T12:55:35.613Z,9.80
2023-04-26T12:58:03.121Z,9.70
2023-04-26T13:00:30.644Z,9.80
2023-04-26T13:02:58.011Z,9.90
2023-04-26T13:05:25.594Z,10.10
2023-04-26T13:07:52.930Z,10.30
2023-04-26T13:10:20.300Z,10.40
2023-04-26T13:12:47.756Z,10.80
2023-04-26T13:15:17.314Z,11.10
2023-04-26T13:17:45.596Z,11.10
2023-04-26T13:20:13.463Z,11.00
2023-04-26T13:22:42.545Z,10.60
2023-04-26T13:25:10.742Z,10.20
2023-04-26T13:27:38.117Z,9.90
2023-04-26T13:30:06.570Z,9.70
2023-04-26T13:32:34.066Z,9.70
2023-04-26T13:35:02.103Z,9.80
2023-04-26T13:37:29.456Z,10.00
2023-04-26T13:39:58.409Z,10.00
2023-04-26T13:42:25.989Z,10.40
2023-04-26T13:44:53.341Z,11.20
2023-04-26T13:47:20.913Z,12.50
2023-04-26T13:49:48.265Z,13.20
2023-04-26T13:52:15.756Z,13.00
2023-04-26T13:54:43.523Z,12.40
2023-04-26T13:57:11.740Z,12.40
2023-04-26T13:59:40.404Z,12.10
2023-04-26T14:02:07.849Z,12.00
2023-04-26T14:04:35.427Z,12.60
2023-04-26T14:07:02.924Z,12.80
2023-04-26T14:09:30.317Z,12.40
2023-04-26T14:12:08.047Z,12.30
2023-04-26T14:14:37.077Z,12.20
2023-04-26T14:17:04.835Z,11.90
2023-04-26T14:19:32.394Z,11.90
2023-04-26T14:21:59.813Z,12.00
2023-04-26T14:24:27.099Z,12.00
2023-04-26T14:26:54.359Z,13.00
2023-04-26T14:29:21.713Z,13.70
2023-04-26T14:31:48.952Z,14.40
2023-04-26T14:34:16.615Z,15.00
2023-04-26T14:36:43.863Z,14.70
2023-04-26T14:39:11.081Z,14.20
2023-04-26T14:41:38.291Z,14.20
2023-04-26T14:44:05.649Z,14.20
2023-04-26T14:46:33.132Z,13.60
2023-04-26T14:49:00.390Z,13.10
2023-04-26T14:51:28.677Z,13.20
2023-04-26T14:53:55.938Z,14.10
2023-04-26T14:56:23.748Z,14.70
2023-04-26T14:58:51.087Z,14.50
2023-04-26T15:01:18.332Z,14.10
2023-04-26T15:03:46.531Z,14.00
2023-04-26T15:06:14.078Z,13.70
2023-04-26T15:08:41.275Z,13.10
2023-04-26T15:11:08.616Z,12.30
2023-04-26T15:13:36.081Z,12.00
2023-04-26T15:16:08.188Z,12.70
2023-04-26T15:18:35.584Z,12.70
2023-04-26T15:21:03.342Z,12.50
2023-04-26T15:23:31.048Z,12.30
2023-04-26T15:26:04.817Z,11.90
2023-04-26T15:28:32.805Z,11.30
2023-04-26T15:31:08.773Z,11.00
2023-04-26T15:33:39.172Z,10.70
2023-04-26T15:36:09.074Z,10.80
2023-04-26T15:38:36.533Z,10.70
2023-04-26T15:41:04.361Z,10.60
2023-04-26T15:43:31.639Z,10.50
2023-04-26T15:45:58.880Z,10.50
2023-04-26T15:48:26.300Z,10.40
2023-04-26T15:50:57.052Z,10.50
2023-04-26T15:53:25.492Z,10.60
2023-04-26T15:55:52.771Z,11.10
2023-04-26T15:58:20.111Z,11.40
2023-04-26T16:00:47.381Z,11.60
2023-04-26T16:03:14.728Z,12.00
2023-04-26T16:05:42.059Z,12.50
2023-04-26T16:08:09.498Z,12.20
2023-04-26T16:10:38.264Z,12.30
2023-04-26T16:13:06.021Z,12.40
2023-04-26T16:15:33.322Z,13.00
2023-04-26T16:18:00.662Z,13.40
2023-04-26T16:20:28.106Z,14.10
2023-04-26T16:22:56.106Z,13.80
2023-04-26T16:25:23.385Z,13.70
2023-04-26T16:27:50.661Z,13.40
2023-04-26T16:30:17.948Z,12.80
2023-04-26T16:32:45.280Z,12.30
2023-04-26T16:35:14.372Z,11.80
2023-04-26T16:37:41.820Z,12.30
2023-04-26T16:40:10.597Z,12.80
2023-04-26T16:42:41.981Z,13.50
2023-04-26T16:45:15.444Z,13.30
2023-04-26T16:47:43.827Z,13.10
2023-04-26T16:50:11.232Z,12.30
2023-04-26T16:52:38.701Z,12.10
2023-04-26T16:55:06.614Z,11.60
2023-04-26T16:57:34.278Z,11.50
2023-04-26T17:00:01.840Z,11.20
2023-04-26T17:02:29.368Z,11.10
2023-04-26T17:04:56.890Z,10.80
2023-04-26T17:07:24.273Z,10.60
2023-04-26T17:09:55.309Z,10.50
2023-04-26T17:12:22.561Z,10.30
2023-04-26T17:14:49.921Z,10.10
2023-04-26T17:17:17.150Z,9.90
2023-04-26T17:19:44.370Z,9.90
2023-04-26T17:22:12.443Z,9.90
2023-04-26T17:24:39.691Z,9.80
2023-04-26T17:27:08.102Z,9.90
2023-04-26T17:29:35.318Z,9.80
2023-04-26T17:32:02.609Z,9.80
2023-04-26T17:34:29.939Z,9.70
2023-04-26T17:36:57.161Z,9.70
2023-04-26T17:39:25.498Z,9.70
2023-04-26T17:41:52.750Z,9.60
2023-04-26T17:44:20.080Z,9.60
2023-04-26T17:46:48.448Z,9.50
2023-04-26T17:49:15.998Z,9.40
2023-04-26T17:51:43.196Z,9.60
2023-04-26T17:54:10.683Z,9.70
2023-04-26T17:56:38.092Z,9.50
2023-04-26T17:59:05.389Z,9.50
2023-04-26T18:01:32.708Z,9.50
2023-04-26T18:04:00.204Z,9.50
2023-04-26T18:06:29.071Z,9.50
2023-04-26T18:08:56.458Z,9.60
2023-04-26T18:11:23.754Z,9.70
2023-04-26T18:13:50.992Z,9.60
2023-04-26T18:16:18.309Z,9.40
2023-04-26T18:18:45.730Z,9.40
2023-04-26T18:21:13.145Z,9.40
2023-04-26T18:23:41.552Z,9.30
2023-04-26T18:26:09.954Z,9.20
2023-04-26T18:28:37.201Z,9.20
2023-04-26T18:31:04.569Z,9.20
2023-04-26T18:33:32.003Z,9.10
2023-04-26T18:35:59.312Z,9.00
2023-04-26T18:38:26.523Z,8.80
2023-04-26T18:40:53.774Z,8.70
2023-04-26T18:43:21.208Z,8.70
2023-04-26T18:45:49.378Z,8.50
2023-04-26T18:48:16.714Z,8.50
2023-04-26T18:50:52.946Z,8.20
2023-04-26T18:53:22.328Z,8.30
2023-04-26T18:55:53.043Z,8.10
2023-04-26T18:58:20.355Z,8.00
2023-04-26T19:00:49.740Z,8.00
2023-04-26T19:03:17.353Z,7.80
2023-04-26T19:05:44.728Z,7.80
2023-04-26T19:08:11.917Z,7.80
2023-04-26T19:10:39.196Z,7.60
2023-04-26T19:13:06.409Z,7.50
2023-04-26T19:15:33.666Z,7.50
2023-04-26T19:18:00.925Z,7.50
2023-04-26T19:20:28.219Z,7.40
2023-04-26T19:22:55.484Z,7.40
2023-04-26T19:25:23.333Z,7.30
2023-04-26T19:27:50.878Z,7.30
2023-04-26T19:30:18.401Z,7.30
2023-04-26T19:32:45.694Z,7.50
2023-04-26T19:35:12.975Z,7.60
2023-04-26T19:37:40.182Z,7.70
2023-04-26T19:40:09.071Z,7.70
2023-04-26T19:42:36.259Z,7.70
2023-04-26T19:45:03.847Z,7.70
2023-04-26T19:47:31.338Z,7.70
2023-04-26T19:49:59.509Z,7.60
2023-04-26T19:52:26.904Z,7.60
2023-04-26T19:54:54.464Z,7.60
2023-04-26T19:57:22.039Z,7.50
2023-04-26T19:59:49.292Z,7.60
2023-04-26T20:02:16.602Z,7.60
2023-04-26T20:04:44.639Z,7.60
2023-04-26T20:07:11.988Z,7.50
2023-04-26T20:09:39.511Z,7.50
2023-04-26T20:12:06.943Z,7.60
2023-04-26T20:14:34.719Z,7.60
2023-04-26T20:17:02.472Z,7.70
2023-04-26T20:19:29.938Z,7.70
2023-04-26T20:21:57.173Z,7.80
2023-04-26T20:24:27.690Z,7.70
2023-04-26T20:26:56.458Z,7.80
2023-04-26T20:29:24.001Z,7.80
2023-04-26T20:31:51.738Z,7.90
2023-04-26T20:34:19.044Z,7.80
2023-04-26T20:36:46.585Z,7.90
2023-04-26T20:39:14.067Z,7.90
2023-04-26T20:41:41.375Z,7.90
2023-04-26T20:44:08.589Z,7.90
2023-04-26T20:46:36.027Z,7.90
2023-04-26T20:49:03.502Z,7.90
2023-04-26T20:51:31.301Z,7.90
2023-04-26T20:53:58.606Z,7.90
2023-04-26T20:56:26.196Z,7.90
2023-04-26T20:58:53.407Z,7.90
2023-04-26T21:01:20.633Z,7.90
2023-04-26T21:03:48.021Z,7.80
2023-04-26T21:06:15.400Z,7.60
2023-04-26T21:08:43.042Z,7.60
2023-04-26T21:11:10.407Z,7.50
2023-04-26T21:13:37.628Z,7.40
2023-04-26T21:16:05.193Z,7.40
2023-04-26T21:18:32.705Z,7.20
2023-04-26T21:20:59.920Z,7.10
2023-04-26T21:23:27.229Z,7.00
2023-04-26T21:25:54.468Z,6.90
2023-04-26T21:28:22.358Z,7.00
2023-04-26T21:30:49.604Z,6.90
2023-04-26T21:33:16.933Z,6.90
2023-04-26T21:35:44.214Z,6.90
2023-04-26T21:38:11.461Z,6.80
2023-04-26T21:40:38.674Z,6.80
2023-04-26T21:43:05.963Z,6.70
2023-04-26T21:45:33.213Z,6.80
2023-04-26T21:48:00.465Z,6.70
2023-04-26T21:50:28.330Z,6.70
2023-04-26T21:52:55.529Z,6.70
2023-04-26T21:55:22.782Z,6.70
2023-04-26T21:57:50.131Z,6.80
2023-04-26T22:00:18.066Z,6.80
2023-04-26T22:02:47.470Z,6.80
2023-04-26T22:05:14.730Z,6.90
2023-04-26T22:07:41.967Z,7.00
2023-04-26T22:10:09.654Z,7.00
2023-04-26T22:12:36.843Z,7.00
2023-04-26T22:15:05.824Z,7.00
2023-04-26T22:17:33.560Z,7.10
2023-04-26T22:20:00.889Z,7.10
2023-04-26T22:22:28.105Z,7.10
2023-04-26T22:24:56.698Z,7.10
2023-04-26T22:27:23.928Z,7.10
2023-04-26T22:29:51.127Z,7.10
2023-04-26T22:32:18.376Z,7.10
2023-04-26T22:34:45.811Z,7.10
2023-04-26T22:37:20.263Z,7.20
2023-04-26T22:39:48.532Z,7.10
2023-04-26T22:42:16.046Z,7.10
2023-04-26T22:44:43.275Z,7.10
2023-04-26T22:47:10.480Z,7.10
2023-04-26T22:49:37.778Z,7.10
2023-04-26T22:52:09.804Z,7.10
2023-04-26T22:54:44.546Z,7.10
2023-04-26T22:57:11.792Z,7.10
2023-04-26T22:59:38.996Z,7.10
2023-04-26T23:02:07.905Z,7.10
2023-04-26T23:04:35.168Z,7.10
2023-04-26T23:07:02.388Z,7.00
2023-04-26T23:09:30.002Z,7.00
2023-04-26T23:11:59.257Z,6.90
2023-04-26T23:14:29.606Z,7.00
2023-04-26T23:17:00.328Z,7.00
2023-04-26T23:19:28.106Z,7.00
2023-04-26T23:21:55.525Z,7.00
2023-04-26T23:24:22.715Z,6.90
2023-04-26T23:26:49.970Z,6.90
2023-04-26T23:29:17.150Z,6.90
2023-04-26T23:31:44.410Z,6.80
2023-04-26T23:34:11.675Z,6.70
2023-04-26T23:36:38.887Z,6.70
2023-04-26T23:39:07.238Z,6.70
2023-04-26T23:41:34.614Z,6.60
2023-04-26T23:44:01.854Z,6.50
2023-04-26T23:46:29.382Z,6.40
2023-04-26T23:48:56.922Z,6.40
2023-04-26T23:51:24.105Z,6.40
2023-04-26T23:53:51.314Z,6.30
2023-04-26T23:56:18.532Z,6.40
2023-04-26T23:58:45.916Z,6.40
